createdAt,value
2017-11-28T00:00:53.290Z,0.00
2017-11-28T00:01:53.258Z,0.00
2017-11-28T00:02:53.242Z,0.00
2017-11-28T00:03:53.220Z,0.00
2017-11-28T00:04:53.197Z,0.00
2017-11-28T00:05:53.176Z,0.00
2017-11-28T00:06:53.161Z,0.00
2017-11-28T00:07:53.136Z,0.00
2017-11-28T00:08:53.117Z,0.00
2017-11-28T00:09:53.095Z,0.00
2017-11-28T00:10:53.066Z,0.00
2017-11-28T00:11:53.053Z,0.00
2017-11-28T00:12:53.028Z,0.00
2017-11-28T00:13:53.008Z,0.00
2017-11-28T00:14:52.986Z,0.00
2017-11-28T00:15:52.961Z,0.00
2017-11-28T00:16:52.947Z,0.00
2017-11-28T00:17:52.921Z,0.00
2017-11-28T00:18:52.904Z,0.00
2017-11-28T00:19:52.884Z,0.00
2017-11-28T00:20:52.860Z,0.00
2017-11-28T00:21:52.838Z,0.00
2017-11-28T00:22:52.818Z,0.00
2017-11-28T00:23:52.795Z,0.00
2017-11-28T00:24:52.777Z,0.00
2017-11-28T00:25:52.756Z,0.00
2017-11-28T00:26:52.733Z,0.00
2017-11-28T00:27:52.709Z,0.00
2017-11-28T00:28:52.703Z,0.00
2017-11-28T00:29:52.670Z,0.00
2017-11-28T00:30:52.659Z,0.00
2017-11-28T00:31:52.632Z,0.00
2017-11-28T00:32:52.617Z,0.00
2017-11-28T00:33:52.585Z,0.00
2017-11-28T00:34:52.568Z,0.00
2017-11-28T00:35:52.541Z,0.00
2017-11-28T00:36:52.528Z,0.00
2017-11-28T00:37:52.499Z,0.00
2017-11-28T00:38:52.478Z,0.00
2017-11-28T00:39:52.462Z,0.00
2017-11-28T00:40:52.442Z,0.00
2017-11-28T00:41:52.417Z,0.00
2017-11-28T00:42:52.392Z,0.00
2017-11-28T00:43:52.376Z,0.00
2017-11-28T00:44:52.352Z,0.00
2017-11-28T00:45:52.328Z,0.00
2017-11-28T00:46:52.307Z,0.00
2017-11-28T00:47:52.287Z,0.00
2017-11-28T00:48:52.267Z,0.00
2017-11-28T00:49:52.246Z,0.00
2017-11-28T00:50:52.226Z,0.00
2017-11-28T00:51:52.207Z,0.00
2017-11-28T00:52:52.188Z,0.00
2017-11-28T00:53:52.164Z,0.00
2017-11-28T00:54:52.139Z,0.00
2017-11-28T00:55:52.118Z,0.00
2017-11-28T00:56:52.098Z,0.00
2017-11-28T00:57:52.074Z,0.00
2017-11-28T00:58:52.054Z,0.00
2017-11-28T00:59:52.035Z,0.00
2017-11-28T01:00:52.013Z,0.00
2017-11-28T01:01:51.997Z,0.00
2017-11-28T01:02:51.973Z,0.00
2017-11-28T01:03:51.949Z,0.00
2017-11-28T01:04:51.928Z,0.00
2017-11-28T01:05:51.908Z,0.00
2017-11-28T01:06:51.885Z,0.00
2017-11-28T01:07:51.870Z,0.00
2017-11-28T01:08:51.845Z,0.00
2017-11-28T01:09:51.826Z,0.00
2017-11-28T01:10:51.797Z,0.00
2017-11-28T01:11:51.778Z,0.00
2017-11-28T01:12:51.758Z,0.00
2017-11-28T01:13:51.738Z,0.00
2017-11-28T01:14:51.722Z,0.00
2017-11-28T01:15:51.695Z,0.00
2017-11-28T01:16:51.679Z,0.00
2017-11-28T01:17:51.659Z,0.00
2017-11-28T01:18:51.635Z,0.00
2017-11-28T01:19:51.608Z,0.00
2017-11-28T01:20:51.588Z,0.00
2017-11-28T01:21:51.575Z,0.00
2017-11-28T01:22:51.545Z,0.00
2017-11-28T01:23:51.529Z,0.00
2017-11-28T01:24:51.505Z,0.00
2017-11-28T01:25:51.482Z,0.00
2017-11-28T01:26:51.459Z,0.00
2017-11-28T01:27:51.448Z,0.00
2017-11-28T01:28:51.418Z,0.00
2017-11-28T01:29:51.398Z,0.00
2017-11-28T01:30:51.381Z,0.00
2017-11-28T01:31:51.355Z,0.00
2017-11-28T01:32:51.342Z,0.00
2017-11-28T01:33:51.318Z,0.00
2017-11-28T01:34:51.292Z,0.00
2017-11-28T01:35:51.326Z,0.00
2017-11-28T01:36:51.249Z,0.00
2017-11-28T01:37:51.228Z,0.00
2017-11-28T01:38:51.210Z,0.00
2017-11-28T01:39:51.186Z,0.00
2017-11-28T01:40:51.166Z,0.00
2017-11-28T01:41:51.144Z,0.00
2017-11-28T01:42:51.131Z,0.00
2017-11-28T01:43:51.105Z,0.00
2017-11-28T01:44:51.087Z,0.00
2017-11-28T01:45:51.058Z,0.00
2017-11-28T01:46:51.039Z,0.00
2017-11-28T01:47:51.020Z,0.00
2017-11-28T01:48:50.998Z,0.00
2017-11-28T01:49:50.975Z,0.00
2017-11-28T01:50:50.963Z,0.00
2017-11-28T01:51:50.935Z,0.00
2017-11-28T01:52:50.911Z,0.00
2017-11-28T01:53:50.892Z,0.00
2017-11-28T01:54:50.868Z,0.00
2017-11-28T01:55:50.855Z,0.00
2017-11-28T01:56:50.830Z,0.00
2017-11-28T01:57:50.808Z,0.00
2017-11-28T01:58:50.784Z,0.00
2017-11-28T01:59:50.768Z,0.00
2017-11-28T02:00:50.744Z,0.00
2017-11-28T02:01:50.722Z,0.00
2017-11-28T02:02:50.708Z,0.00
2017-11-28T02:03:50.684Z,0.00
2017-11-28T02:04:50.665Z,0.00
2017-11-28T02:05:50.642Z,0.00
2017-11-28T02:06:50.617Z,0.00
2017-11-28T02:07:50.595Z,0.00
2017-11-28T02:08:50.578Z,0.00
2017-11-28T02:09:50.559Z,0.00
2017-11-28T02:10:50.534Z,0.00
2017-11-28T02:11:50.515Z,0.00
2017-11-28T02:12:50.500Z,0.00
2017-11-28T02:13:50.468Z,0.00
2017-11-28T02:14:50.448Z,0.00
2017-11-28T02:15:50.428Z,0.00
2017-11-28T02:16:50.409Z,0.00
2017-11-28T02:17:50.391Z,0.00
2017-11-28T02:18:50.370Z,0.00
2017-11-28T02:19:50.348Z,0.00
2017-11-28T02:20:50.325Z,0.00
2017-11-28T02:21:50.302Z,0.00
2017-11-28T02:22:50.280Z,0.00
2017-11-28T02:23:50.262Z,0.00
2017-11-28T02:24:50.237Z,0.00
2017-11-28T02:25:50.219Z,0.00
2017-11-28T02:26:50.206Z,0.00
2017-11-28T02:27:50.176Z,0.00
2017-11-28T02:28:50.160Z,0.00
2017-11-28T02:29:50.134Z,0.00
2017-11-28T02:30:50.113Z,0.00
2017-11-28T02:31:50.095Z,0.00
2017-11-28T02:32:50.073Z,0.00
2017-11-28T02:33:50.049Z,0.00
2017-11-28T02:34:50.028Z,0.00
2017-11-28T02:35:50.021Z,0.00
2017-11-28T02:36:49.988Z,0.00
2017-11-28T02:37:49.970Z,0.00
2017-11-28T02:38:49.949Z,0.00
2017-11-28T02:39:49.921Z,0.00
2017-11-28T02:40:49.906Z,0.00
2017-11-28T02:41:49.884Z,0.00
2017-11-28T02:42:49.866Z,0.00
2017-11-28T02:43:49.837Z,0.00
2017-11-28T02:44:49.820Z,0.00
2017-11-28T02:45:49.796Z,0.00
2017-11-28T02:46:49.784Z,0.00
2017-11-28T02:47:49.759Z,0.00
2017-11-28T02:48:49.732Z,0.00
2017-11-28T02:49:49.713Z,0.00
2017-11-28T02:50:49.696Z,0.00
2017-11-28T02:51:49.679Z,0.00
2017-11-28T02:52:49.648Z,0.00
2017-11-28T02:53:49.627Z,0.00
2017-11-28T02:54:49.606Z,0.00
2017-11-28T02:55:49.588Z,0.00
2017-11-28T02:56:49.570Z,0.00
2017-11-28T02:57:49.548Z,0.00
2017-11-28T02:58:49.522Z,0.00
2017-11-28T02:59:49.501Z,0.00
2017-11-28T03:00:49.481Z,0.00
2017-11-28T03:01:49.460Z,0.00
2017-11-28T03:02:49.437Z,0.00
2017-11-28T03:03:49.415Z,0.00
2017-11-28T03:04:49.394Z,0.00
2017-11-28T03:05:49.380Z,0.00
2017-11-28T03:06:49.355Z,0.00
2017-11-28T03:07:49.380Z,0.00
2017-11-28T03:08:49.307Z,0.00
2017-11-28T03:09:49.289Z,0.00
2017-11-28T03:10:49.276Z,0.00
2017-11-28T03:11:49.248Z,0.00
2017-11-28T03:12:49.230Z,0.00
2017-11-28T03:13:49.203Z,0.00
2017-11-28T03:14:49.185Z,0.00
2017-11-28T03:15:49.159Z,0.00
2017-11-28T03:16:49.137Z,0.00
2017-11-28T03:17:49.119Z,0.00
2017-11-28T03:18:49.096Z,0.00
2017-11-28T03:19:49.075Z,0.00
2017-11-28T03:20:49.058Z,0.00
2017-11-28T03:21:49.035Z,0.00
2017-11-28T03:22:49.010Z,0.00
2017-11-28T03:23:48.996Z,0.00
2017-11-28T03:24:48.976Z,0.00
2017-11-28T03:25:48.947Z,0.00
2017-11-28T03:26:48.932Z,0.00
2017-11-28T03:27:48.907Z,0.00
2017-11-28T03:28:48.884Z,0.00
2017-11-28T03:29:48.868Z,0.00
2017-11-28T03:30:48.846Z,0.00
2017-11-28T03:31:48.821Z,0.00
2017-11-28T03:32:48.799Z,0.00
2017-11-28T03:33:48.776Z,0.00
2017-11-28T03:34:48.758Z,0.00
2017-11-28T03:35:48.738Z,0.00
2017-11-28T03:36:48.718Z,0.00
2017-11-28T03:37:48.694Z,0.00
2017-11-28T03:38:48.670Z,0.00
2017-11-28T03:39:48.650Z,0.00
2017-11-28T03:40:48.630Z,0.00
2017-11-28T03:41:48.608Z,0.00
2017-11-28T03:42:48.590Z,0.00
2017-11-28T03:43:48.574Z,0.00
2017-11-28T03:44:48.547Z,0.00
2017-11-28T03:45:48.528Z,0.00
2017-11-28T03:46:48.510Z,0.00
2017-11-28T03:47:48.479Z,0.00
2017-11-28T03:48:48.464Z,0.00
2017-11-28T03:49:48.442Z,0.00
2017-11-28T03:50:48.417Z,0.00
2017-11-28T03:51:48.398Z,0.00
2017-11-28T03:52:48.377Z,0.00
2017-11-28T03:53:48.353Z,0.00
2017-11-28T03:54:48.335Z,0.00
2017-11-28T03:55:48.314Z,0.00
2017-11-28T03:56:48.320Z,0.00
2017-11-28T03:57:48.268Z,0.00
2017-11-28T03:58:48.246Z,0.00
2017-11-28T03:59:48.226Z,0.00
2017-11-28T04:00:48.205Z,0.00
2017-11-28T04:01:48.191Z,0.00
2017-11-28T04:02:48.163Z,0.00
2017-11-28T04:03:48.139Z,0.00
2017-11-28T04:04:48.129Z,0.00
2017-11-28T04:05:48.101Z,0.00
2017-11-28T04:06:48.078Z,0.00
2017-11-28T04:07:48.057Z,0.00
2017-11-28T04:08:48.031Z,0.00
2017-11-28T04:09:48.014Z,0.00
2017-11-28T04:10:47.993Z,0.00
2017-11-28T04:11:47.968Z,0.00
2017-11-28T04:12:47.947Z,0.00
2017-11-28T04:13:47.931Z,0.00
2017-11-28T04:14:47.912Z,0.00
2017-11-28T04:15:47.881Z,0.00
2017-11-28T04:16:47.862Z,0.00
2017-11-28T04:17:47.839Z,0.00
2017-11-28T04:18:47.823Z,0.00
2017-11-28T04:19:47.799Z,0.00
2017-11-28T04:20:47.775Z,0.00
2017-11-28T04:21:47.757Z,0.00
2017-11-28T04:22:47.735Z,0.00
2017-11-28T04:23:47.718Z,0.00
2017-11-28T04:24:47.699Z,0.00
2017-11-28T04:25:47.671Z,0.00
2017-11-28T04:26:47.648Z,0.00
2017-11-28T04:27:47.624Z,0.00
2017-11-28T04:28:47.605Z,0.00
2017-11-28T04:29:47.584Z,0.00
2017-11-28T04:30:47.567Z,0.00
2017-11-28T04:31:47.546Z,0.00
2017-11-28T04:32:47.521Z,0.00
2017-11-28T04:33:47.498Z,0.00
2017-11-28T04:34:47.477Z,0.00
2017-11-28T04:35:47.457Z,0.00
2017-11-28T04:36:47.435Z,0.00
2017-11-28T04:37:47.421Z,0.00
2017-11-28T04:38:47.419Z,0.00
2017-11-28T04:39:47.371Z,0.00
2017-11-28T04:40:47.354Z,0.00
2017-11-28T04:41:47.337Z,0.00
2017-11-28T04:42:47.307Z,0.00
2017-11-28T04:43:47.284Z,0.00
2017-11-28T04:44:47.268Z,0.00
2017-11-28T04:45:47.244Z,0.00
2017-11-28T04:46:47.222Z,0.00
2017-11-28T04:47:47.205Z,0.00
2017-11-28T04:48:47.181Z,0.00
2017-11-28T04:49:47.157Z,0.00
2017-11-28T04:50:47.138Z,0.00
2017-11-28T04:51:47.120Z,0.00
2017-11-28T04:52:47.132Z,0.00
2017-11-28T04:53:47.076Z,0.00
2017-11-28T04:54:47.057Z,0.00
2017-11-28T04:55:47.032Z,0.00
2017-11-28T04:56:47.008Z,0.00
2017-11-28T04:57:46.993Z,0.00
2017-11-28T04:58:46.967Z,0.00
2017-11-28T04:59:46.945Z,0.00
2017-11-28T05:00:46.927Z,0.00
2017-11-28T05:01:46.902Z,0.00
2017-11-28T05:02:46.880Z,0.00
2017-11-28T05:03:46.868Z,0.00
2017-11-28T05:04:46.841Z,0.00
2017-11-28T05:05:46.819Z,0.00
2017-11-28T05:06:46.793Z,0.00
2017-11-28T05:07:46.770Z,0.00
2017-11-28T05:08:46.754Z,0.00
2017-11-28T05:09:46.737Z,0.00
2017-11-28T05:10:46.714Z,0.00
2017-11-28T05:11:46.693Z,0.00
2017-11-28T05:12:46.668Z,0.00
2017-11-28T05:13:46.648Z,0.00
2017-11-28T05:14:46.627Z,0.00
2017-11-28T05:15:46.603Z,0.00
2017-11-28T05:16:46.593Z,0.00
2017-11-28T05:17:46.560Z,0.00
2017-11-28T05:18:46.540Z,0.00
2017-11-28T05:19:46.518Z,0.00
2017-11-28T05:20:46.497Z,0.00
2017-11-28T05:21:46.476Z,0.00
2017-11-28T05:22:46.454Z,0.00
2017-11-28T05:23:46.437Z,0.00
2017-11-28T05:24:46.414Z,0.00
2017-11-28T05:25:46.392Z,0.00
2017-11-28T05:26:46.370Z,0.00
2017-11-28T05:27:46.348Z,0.00
2017-11-28T05:28:46.326Z,0.00
2017-11-28T05:29:46.307Z,0.00
2017-11-28T05:30:46.283Z,0.00
2017-11-28T05:31:46.262Z,0.00
2017-11-28T05:32:46.249Z,0.00
2017-11-28T05:33:46.219Z,0.00
2017-11-28T05:34:46.196Z,0.00
2017-11-28T05:35:46.183Z,0.00
2017-11-28T05:36:46.158Z,0.00
2017-11-28T05:37:46.141Z,0.00
2017-11-28T05:38:46.111Z,0.00
2017-11-28T05:39:46.090Z,0.00
2017-11-28T05:40:46.073Z,0.00
2017-11-28T05:41:46.047Z,0.00
2017-11-28T05:42:46.026Z,0.00
2017-11-28T05:43:46.012Z,0.00
2017-11-28T05:44:45.984Z,0.00
2017-11-28T05:45:45.962Z,0.00
2017-11-28T05:46:45.947Z,0.00
2017-11-28T05:47:45.919Z,0.00
2017-11-28T05:48:45.898Z,0.00
2017-11-28T05:49:45.874Z,0.00
2017-11-28T05:50:45.862Z,0.00
2017-11-28T05:51:45.833Z,0.00
2017-11-28T05:52:45.812Z,0.00
2017-11-28T05:53:45.854Z,0.00
2017-11-28T05:54:45.767Z,0.00
2017-11-28T05:55:45.746Z,0.00
2017-11-28T05:56:45.724Z,0.00
2017-11-28T05:57:45.707Z,0.00
2017-11-28T05:58:45.704Z,0.00
2017-11-28T05:59:45.679Z,0.00
2017-11-28T06:00:45.645Z,0.00
2017-11-28T06:01:45.619Z,0.00
2017-11-28T06:02:45.598Z,0.00
2017-11-28T06:03:45.582Z,0.00
2017-11-28T06:04:45.553Z,0.00
2017-11-28T06:05:45.532Z,0.00
2017-11-28T06:06:45.512Z,0.00
2017-11-28T06:07:45.488Z,0.00
2017-11-28T06:08:45.467Z,0.00
2017-11-28T06:09:45.447Z,0.00
2017-11-28T06:10:45.427Z,0.00
2017-11-28T06:11:45.406Z,0.00
2017-11-28T06:12:45.385Z,0.00
2017-11-28T06:13:45.360Z,0.00
2017-11-28T06:14:45.344Z,0.00
2017-11-28T06:15:45.319Z,0.00
2017-11-28T06:16:45.299Z,0.00
2017-11-28T06:17:45.272Z,0.00
2017-11-28T06:18:45.286Z,0.00
2017-11-28T06:19:45.238Z,0.00
2017-11-28T06:20:45.214Z,0.00
2017-11-28T06:21:45.192Z,0.00
2017-11-28T06:22:45.171Z,0.00
2017-11-28T06:23:45.147Z,0.00
2017-11-28T06:24:45.127Z,0.00
2017-11-28T06:25:45.105Z,0.00
2017-11-28T06:26:45.088Z,0.00
2017-11-28T06:27:45.061Z,0.00
2017-11-28T06:28:45.043Z,0.00
2017-11-28T06:29:45.020Z,0.00
2017-11-28T06:30:44.999Z,0.00
2017-11-28T06:31:44.978Z,0.00
2017-11-28T06:32:44.956Z,0.00
2017-11-28T06:33:44.937Z,0.00
2017-11-28T06:34:44.916Z,0.00
2017-11-28T06:35:44.890Z,0.00
2017-11-28T06:36:44.871Z,0.00
2017-11-28T06:37:44.851Z,0.00
2017-11-28T06:38:44.828Z,0.00
2017-11-28T06:39:44.804Z,0.00
2017-11-28T06:40:44.789Z,0.00
2017-11-28T06:41:44.773Z,0.00
2017-11-28T06:42:44.741Z,0.00
2017-11-28T06:43:44.725Z,0.00
2017-11-28T06:44:44.698Z,0.00
2017-11-28T06:45:44.677Z,0.00
2017-11-28T06:46:44.658Z,0.00
2017-11-28T06:47:44.637Z,0.00
2017-11-28T06:48:44.614Z,0.00
2017-11-28T06:49:44.593Z,4.00
2017-11-28T06:50:44.569Z,0.00
2017-11-28T06:51:44.546Z,4.00
2017-11-28T06:52:44.526Z,0.00
2017-11-28T06:53:44.507Z,4.00
2017-11-28T06:54:44.491Z,4.00
2017-11-28T06:55:44.465Z,0.00
2017-11-28T06:56:44.441Z,4.00
2017-11-28T06:57:44.429Z,0.00
2017-11-28T06:58:44.398Z,0.00
2017-11-28T06:59:44.378Z,4.00
2017-11-28T07:00:44.355Z,4.00
2017-11-28T07:01:44.336Z,4.00
2017-11-28T07:02:44.314Z,4.00
2017-11-28T07:03:44.306Z,4.00
2017-11-28T07:04:44.276Z,8.00
2017-11-28T07:05:44.248Z,8.00
2017-11-28T07:06:44.251Z,8.00
2017-11-28T07:07:44.206Z,8.00
2017-11-28T07:08:44.187Z,8.00
2017-11-28T07:09:44.164Z,8.00
2017-11-28T07:10:44.149Z,12.00
2017-11-28T07:11:44.125Z,12.00
2017-11-28T07:12:44.098Z,12.00
2017-11-28T07:13:44.402Z,12.00
2017-11-28T07:14:44.057Z,16.00
2017-11-28T07:15:44.036Z,16.00
2017-11-28T07:16:44.014Z,16.00
2017-11-28T07:17:44.001Z,16.00
2017-11-28T07:18:43.968Z,20.00
2017-11-28T07:19:43.954Z,20.00
2017-11-28T07:20:43.926Z,20.00
2017-11-28T07:21:43.905Z,24.00
2017-11-28T07:22:43.887Z,24.00
2017-11-28T07:23:43.864Z,28.00
2017-11-28T07:24:43.839Z,28.00
2017-11-28T07:25:43.816Z,28.00
2017-11-28T07:26:43.801Z,32.00
2017-11-28T07:27:43.776Z,32.00
2017-11-28T07:28:43.760Z,32.00
2017-11-28T07:29:43.730Z,36.00
2017-11-28T07:30:43.712Z,40.00
2017-11-28T07:31:43.689Z,40.00
2017-11-28T07:32:43.666Z,44.00
2017-11-28T07:33:43.648Z,48.00
2017-11-28T07:34:43.630Z,48.00
2017-11-28T07:35:43.602Z,48.00
2017-11-28T07:36:43.584Z,48.00
2017-11-28T07:37:43.557Z,48.00
2017-11-28T07:38:43.538Z,52.00
2017-11-28T07:39:43.516Z,52.00
2017-11-28T07:40:43.503Z,56.00
2017-11-28T07:41:43.474Z,60.00
2017-11-28T07:42:43.451Z,68.00
2017-11-28T07:43:43.428Z,68.00
2017-11-28T07:44:43.408Z,72.00
2017-11-28T07:45:43.393Z,72.00
2017-11-28T07:46:43.362Z,76.00
2017-11-28T07:47:43.344Z,76.00
2017-11-28T07:48:43.347Z,76.00
2017-11-28T07:49:43.297Z,88.00
2017-11-28T07:50:43.275Z,104.00
2017-11-28T07:51:43.255Z,112.00
2017-11-28T07:52:43.239Z,120.00
2017-11-28T07:53:43.215Z,112.00
2017-11-28T07:54:43.190Z,112.00
2017-11-28T07:55:43.168Z,112.00
2017-11-28T07:56:43.146Z,120.00
2017-11-28T07:57:43.126Z,132.00
2017-11-28T07:58:43.120Z,132.00
2017-11-28T07:59:43.090Z,156.00
2017-11-28T08:00:43.077Z,164.00
2017-11-28T08:01:43.038Z,140.00
2017-11-28T08:02:43.017Z,116.00
2017-11-28T08:03:42.999Z,112.00
2017-11-28T08:04:42.976Z,116.00
2017-11-28T08:05:42.950Z,116.00
2017-11-28T08:06:42.936Z,112.00
2017-11-28T08:07:42.912Z,100.00
2017-11-28T08:08:42.887Z,84.00
2017-11-28T08:09:42.869Z,72.00
2017-11-28T08:10:42.850Z,76.00
2017-11-28T08:11:42.822Z,76.00
2017-11-28T08:12:42.804Z,80.00
2017-11-28T08:13:42.781Z,72.00
2017-11-28T08:14:42.771Z,68.00
2017-11-28T08:15:42.742Z,72.00
2017-11-28T08:16:42.713Z,72.00
2017-11-28T08:17:42.702Z,60.00
2017-11-28T08:18:42.675Z,52.00
2017-11-28T08:19:42.656Z,60.00
2017-11-28T08:20:42.634Z,72.00
2017-11-28T08:21:42.609Z,72.00
2017-11-28T08:22:42.587Z,76.00
2017-11-28T08:23:42.564Z,80.00
2017-11-28T08:24:42.548Z,88.00
2017-11-28T08:25:42.521Z,92.00
2017-11-28T08:26:42.503Z,120.00
2017-11-28T08:27:42.479Z,148.00
2017-11-28T08:28:42.467Z,160.00
2017-11-28T08:29:42.458Z,160.00
2017-11-28T08:30:42.414Z,172.00
2017-11-28T08:31:42.397Z,212.00
2017-11-28T08:32:42.375Z,240.00
2017-11-28T08:33:42.351Z,240.00
2017-11-28T08:34:42.328Z,216.00
2017-11-28T08:35:42.307Z,192.00
2017-11-28T08:36:42.287Z,168.00
2017-11-28T08:37:42.267Z,164.00
2017-11-28T08:38:42.256Z,176.00
2017-11-28T08:39:42.219Z,200.00
2017-11-28T08:40:42.198Z,200.00
2017-11-28T08:41:42.179Z,216.00
2017-11-28T08:42:42.158Z,184.00
2017-11-28T08:43:42.145Z,160.00
2017-11-28T08:44:42.112Z,160.00
2017-11-28T08:45:42.092Z,176.00
2017-11-28T08:46:42.067Z,180.00
2017-11-28T08:47:42.049Z,196.00
2017-11-28T08:48:42.037Z,192.00
2017-11-28T08:49:42.009Z,176.00
2017-11-28T08:50:42.007Z,164.00
2017-11-28T08:51:41.967Z,136.00
2017-11-28T08:52:41.946Z,132.00
2017-11-28T08:53:41.922Z,140.00
2017-11-28T08:54:41.902Z,156.00
2017-11-28T08:55:41.883Z,164.00
2017-11-28T08:56:41.860Z,176.00
2017-11-28T08:57:41.836Z,188.00
2017-11-28T08:58:41.824Z,180.00
2017-11-28T08:59:41.802Z,172.00
2017-11-28T09:00:41.772Z,156.00
2017-11-28T09:01:41.757Z,148.00
2017-11-28T09:02:41.732Z,156.00
2017-11-28T09:03:41.708Z,160.00
2017-11-28T09:04:41.685Z,164.00
2017-11-28T09:05:41.668Z,160.00
2017-11-28T09:06:41.644Z,164.00
2017-11-28T09:07:41.643Z,152.00
2017-11-28T09:08:41.602Z,144.00
2017-11-28T09:09:41.577Z,140.00
2017-11-28T09:10:41.560Z,136.00
2017-11-28T09:11:41.537Z,140.00
2017-11-28T09:12:41.518Z,128.00
2017-11-28T09:13:41.494Z,140.00
2017-11-28T09:14:41.471Z,144.00
2017-11-28T09:15:41.450Z,148.00
2017-11-28T09:16:41.428Z,140.00
2017-11-28T09:17:41.417Z,140.00
2017-11-28T09:18:41.393Z,144.00
2017-11-28T09:19:41.367Z,144.00
2017-11-28T09:20:41.350Z,144.00
2017-11-28T09:21:41.320Z,160.00
2017-11-28T09:22:41.302Z,156.00
2017-11-28T09:23:41.280Z,168.00
2017-11-28T09:24:41.268Z,176.00
2017-11-28T09:25:41.242Z,184.00
2017-11-28T09:26:41.218Z,216.00
2017-11-28T09:27:41.202Z,280.00
2017-11-28T09:28:41.178Z,256.00
2017-11-28T09:29:41.153Z,300.00
2017-11-28T09:30:41.131Z,280.00
2017-11-28T09:31:41.117Z,284.00
2017-11-28T09:32:41.092Z,288.00
2017-11-28T09:33:41.065Z,308.00
2017-11-28T09:34:41.042Z,348.00
2017-11-28T09:35:41.027Z,300.00
2017-11-28T09:36:41.004Z,296.00
2017-11-28T09:37:40.990Z,228.00
2017-11-28T09:38:40.974Z,228.00
2017-11-28T09:39:40.942Z,268.00
2017-11-28T09:40:40.916Z,248.00
2017-11-28T09:41:40.901Z,320.00
2017-11-28T09:42:40.878Z,420.00
2017-11-28T09:43:40.854Z,436.00
2017-11-28T09:44:40.843Z,288.00
2017-11-28T09:45:40.814Z,300.00
2017-11-28T09:46:40.787Z,300.00
2017-11-28T09:47:40.773Z,224.00
2017-11-28T09:48:40.755Z,272.00
2017-11-28T09:49:40.727Z,276.00
2017-11-28T09:50:40.704Z,344.00
2017-11-28T09:51:40.695Z,408.00
2017-11-28T09:52:40.666Z,400.00
2017-11-28T09:53:40.640Z,460.00
2017-11-28T09:54:40.624Z,432.00
2017-11-28T09:55:40.598Z,436.00
2017-11-28T09:56:40.575Z,356.00
2017-11-28T09:57:40.557Z,232.00
2017-11-28T09:58:40.543Z,192.00
2017-11-28T09:59:40.518Z,188.00
2017-11-28T10:00:40.499Z,212.00
2017-11-28T10:01:40.482Z,228.00
2017-11-28T10:02:40.449Z,232.00
2017-11-28T10:03:40.439Z,296.00
2017-11-28T10:04:40.407Z,396.00
2017-11-28T10:05:40.385Z,316.00
2017-11-28T10:06:40.363Z,456.00
2017-11-28T10:07:40.346Z,368.00
2017-11-28T10:08:40.324Z,364.00
2017-11-28T10:09:40.301Z,324.00
2017-11-28T10:10:40.299Z,336.00
2017-11-28T10:11:40.260Z,356.00
2017-11-28T10:12:40.238Z,232.00
2017-11-28T10:13:40.223Z,320.00
2017-11-28T10:14:40.196Z,412.00
2017-11-28T10:15:40.172Z,252.00
2017-11-28T10:16:40.155Z,304.00
2017-11-28T10:17:40.130Z,308.00
2017-11-28T10:18:40.109Z,292.00
2017-11-28T10:19:40.091Z,368.00
2017-11-28T10:20:40.073Z,552.00
2017-11-28T10:21:40.044Z,644.00
2017-11-28T10:22:40.026Z,444.00
2017-11-28T10:23:40.009Z,532.00
2017-11-28T10:24:39.982Z,716.00
2017-11-28T10:25:39.967Z,368.00
2017-11-28T10:26:39.937Z,452.00
2017-11-28T10:27:39.928Z,500.00
2017-11-28T10:28:39.898Z,500.00
2017-11-28T10:29:39.881Z,528.00
2017-11-28T10:30:39.867Z,492.00
2017-11-28T10:31:39.839Z,552.00
2017-11-28T10:32:39.812Z,484.00
2017-11-28T10:33:39.791Z,304.00
2017-11-28T10:34:39.767Z,616.00
2017-11-28T10:35:39.756Z,336.00
2017-11-28T10:36:39.738Z,364.00
2017-11-28T10:37:39.709Z,528.00
2017-11-28T10:38:39.686Z,264.00
2017-11-28T10:39:39.670Z,212.00
2017-11-28T10:40:39.648Z,216.00
2017-11-28T10:41:39.630Z,236.00
2017-11-28T10:42:39.611Z,392.00
2017-11-28T10:43:39.581Z,240.00
2017-11-28T10:44:39.562Z,244.00
2017-11-28T10:45:39.555Z,248.00
2017-11-28T10:46:39.520Z,344.00
2017-11-28T10:47:39.499Z,328.00
2017-11-28T10:48:39.479Z,436.00
2017-11-28T10:49:39.460Z,352.00
2017-11-28T10:50:39.438Z,352.00
2017-11-28T10:51:39.421Z,568.00
2017-11-28T10:52:39.396Z,448.00
2017-11-28T10:53:39.376Z,280.00
2017-11-28T10:54:39.357Z,288.00
2017-11-28T10:55:39.334Z,240.00
2017-11-28T10:56:39.309Z,240.00
2017-11-28T10:57:39.286Z,264.00
2017-11-28T10:58:39.288Z,268.00
2017-11-28T10:59:39.245Z,240.00
2017-11-28T11:00:39.233Z,216.00
2017-11-28T11:01:39.213Z,216.00
2017-11-28T11:02:39.182Z,232.00
2017-11-28T11:03:39.162Z,220.00
2017-11-28T11:04:39.148Z,232.00
2017-11-28T11:05:39.122Z,312.00
2017-11-28T11:06:39.100Z,352.00
2017-11-28T11:07:39.080Z,364.00
2017-11-28T11:08:39.055Z,392.00
2017-11-28T11:09:39.037Z,388.00
2017-11-28T11:10:39.020Z,324.00
2017-11-28T11:11:39.003Z,400.00
2017-11-28T11:12:38.973Z,380.00
2017-11-28T11:13:38.952Z,332.00
2017-11-28T11:14:38.931Z,336.00
2017-11-28T11:15:38.913Z,424.00
2017-11-28T11:16:38.887Z,408.00
2017-11-28T11:17:38.865Z,488.00
2017-11-28T11:18:38.849Z,572.00
2017-11-28T11:19:38.825Z,312.00
2017-11-28T11:20:38.802Z,372.00
2017-11-28T11:21:38.786Z,456.00
2017-11-28T11:22:38.757Z,324.00
2017-11-28T11:23:38.739Z,292.00
2017-11-28T11:24:38.718Z,316.00
2017-11-28T11:25:38.697Z,416.00
2017-11-28T11:26:38.679Z,636.00
2017-11-28T11:27:38.667Z,436.00
2017-11-28T11:28:38.637Z,332.00
2017-11-28T11:29:38.612Z,372.00
2017-11-28T11:30:38.588Z,348.00
2017-11-28T11:31:38.598Z,412.00
2017-11-28T11:32:38.551Z,840.00
2017-11-28T11:33:38.527Z,884.00
2017-11-28T11:34:38.508Z,804.00
2017-11-28T11:35:38.488Z,564.00
2017-11-28T11:36:38.482Z,636.00
2017-11-28T11:37:38.450Z,540.00
2017-11-28T11:38:38.422Z,268.00
2017-11-28T11:39:38.403Z,244.00
2017-11-28T11:40:38.382Z,248.00
2017-11-28T11:41:38.362Z,264.00
2017-11-28T11:42:38.338Z,292.00
2017-11-28T11:43:38.318Z,324.00
2017-11-28T11:44:38.296Z,364.00
2017-11-28T11:45:38.277Z,432.00
2017-11-28T11:46:38.255Z,388.00
2017-11-28T11:47:38.238Z,348.00
2017-11-28T11:48:38.217Z,336.00
2017-11-28T11:49:38.196Z,288.00
2017-11-28T11:50:38.176Z,248.00
2017-11-28T11:51:38.153Z,228.00
2017-11-28T11:52:38.129Z,248.00
2017-11-28T11:53:38.110Z,252.00
2017-11-28T11:54:38.091Z,240.00
2017-11-28T11:55:38.067Z,232.00
2017-11-28T11:56:38.047Z,264.00
2017-11-28T11:57:38.029Z,252.00
2017-11-28T11:58:38.005Z,244.00
2017-11-28T11:59:37.987Z,228.00
2017-11-28T12:00:37.963Z,236.00
2017-11-28T12:01:37.944Z,220.00
2017-11-28T12:02:37.928Z,244.00
2017-11-28T12:03:37.909Z,264.00
2017-11-28T12:04:37.888Z,248.00
2017-11-28T12:05:37.859Z,220.00
2017-11-28T12:06:37.837Z,212.00
2017-11-28T12:07:37.820Z,248.00
2017-11-28T12:08:37.798Z,284.00
2017-11-28T12:09:37.776Z,300.00
2017-11-28T12:10:37.757Z,364.00
2017-11-28T12:11:37.733Z,340.00
2017-11-28T12:12:37.721Z,304.00
2017-11-28T12:13:37.699Z,288.00
2017-11-28T12:14:37.671Z,260.00
2017-11-28T12:15:37.653Z,272.00
2017-11-28T12:16:37.631Z,308.00
2017-11-28T12:17:37.610Z,408.00
2017-11-28T12:18:37.590Z,404.00
2017-11-28T12:19:37.567Z,332.00
2017-11-28T12:20:37.551Z,340.00
2017-11-28T12:21:37.529Z,368.00
2017-11-28T12:22:37.509Z,412.00
2017-11-28T12:23:37.482Z,388.00
2017-11-28T12:24:37.467Z,328.00
2017-11-28T12:25:37.448Z,268.00
2017-11-28T12:26:37.423Z,236.00
2017-11-28T12:27:37.400Z,236.00
2017-11-28T12:28:37.383Z,252.00
2017-11-28T12:29:37.361Z,264.00
2017-11-28T12:30:37.338Z,264.00
2017-11-28T12:31:37.317Z,300.00
2017-11-28T12:32:37.301Z,300.00
2017-11-28T12:33:37.274Z,276.00
2017-11-28T12:34:37.258Z,260.00
2017-11-28T12:35:37.238Z,312.00
2017-11-28T12:36:37.219Z,316.00
2017-11-28T12:37:37.195Z,308.00
2017-11-28T12:38:37.180Z,236.00
2017-11-28T12:39:37.149Z,236.00
2017-11-28T12:40:37.143Z,284.00
2017-11-28T12:41:37.111Z,340.00
2017-11-28T12:42:37.091Z,468.00
2017-11-28T12:43:37.069Z,404.00
2017-11-28T12:44:37.049Z,360.00
2017-11-28T12:45:37.031Z,284.00
2017-11-28T12:46:37.004Z,344.00
2017-11-28T12:47:36.987Z,288.00
2017-11-28T12:48:36.964Z,396.00
2017-11-28T12:49:36.950Z,380.00
2017-11-28T12:50:36.927Z,324.00
2017-11-28T12:51:36.908Z,396.00
2017-11-28T12:52:36.881Z,388.00
2017-11-28T12:53:36.863Z,308.00
2017-11-28T12:54:36.851Z,316.00
2017-11-28T12:55:36.823Z,352.00
2017-11-28T12:56:36.801Z,280.00
2017-11-28T12:57:36.821Z,252.00